Hattiesburg, MS (39401)

1:15 AM CDT on March 30, 2017 (GMT -0500)
USM School of Polymers | | Change Station

Elev 233 ft 31.33 °N, 89.34 °W | Updated 41 seconds ago

Overcast
Overcast
71.2 °F
Feels Like 71.2 °F
N
6.0
Wind Variable Wind from SSE
Gusts 12.0 mph

Today
High -- | Low -- °F
--% Chance of Precip.
Yesterday
High -- | Low -- °F
Precip. -- in
Pressure 29.91 in
Visibility 10.0 miles
Clouds Mostly Cloudy 1500 ft
Mostly Cloudy 1900 ft
Overcast 4100 ft
Dew Point 68 °F
Humidity 88%
Rainfall 0.00 in
Snow Depth Not available.
6:48 AM 7:15 PM
Waxing Crescent, 6% visible
METAR KHBG 300553Z AUTO 16007KT 10SM BKN015 BKN019 OVC041 22/19 A2992 RMK AO2 SLP128 T02170189 10250 20211 402890189 55005
Pressure 29.91 in
Visibility 10.0 miles
Clouds Mostly Cloudy 1500 ft
Mostly Cloudy 1900 ft
Overcast 4100 ft
Dew Point 68 °F
Humidity 88%
Rainfall 0.00 in
Snow Depth Not available.
6:48 AM 7:15 PM
Waxing Crescent, 6% visible
METAR KHBG 300553Z AUTO 16007KT 10SM BKN015 BKN019 OVC041 22/19 A2992 RMK AO2 SLP128 T02170189 10250 20211 402890189 55005

Get Severe Weather Alerts

Thanks for signing up!

Be on the lookout for a verification email in your inbox.

You'll start receiving the daily forecast at 8 AM.

×

10-Day Weather Forecast

Almanac

Astronomy

Mar. 30, 2017 Rise Set
Actual Time
Civil Twilight
Nautical Twilight
Astronomical Twilight
Moon
Length of Visible Light
Length of Day
Tomorrow will be .
, % of the Moon is Illuminated

Today's Extremes

State Highs State Lows

Community

WunderPhotos

Upload Photos

1,962,540 photos uploaded!

WunderBlog® & News

Nearby

Air Quality

  Air Quality AQ Index Pollutant
Not available.

Snow Depth

Station Depth Elevation

Earthquake Activity

City Distance Mag. Time & Date
Minimum magnitude displayed is 2.5.

Earthquake Activity

City Distance Mag. Time & Date
Minimum magnitude displayed is 2.5.

Coastal Water Temperatures

Place Temperature

Stations

Nearby Weather Stations

Station Location Temp. Windchill Dew Point Humidity Wind Precip. Elev Updated Type
                   

Watches & Warnings

There are currently no watches in effect.